sensor_id;sensor_type;location;lat;lon;timestamp;pressure;altitude;pressure_sealevel;temperature;humidity
68476;BME280;55464;48.266;14.188;2023-03-25T00:00:06;97166.72;;;11.12;70.83
68476;BME280;55464;48.266;14.188;2023-03-25T00:02:40;97165.44;;;11.06;70.81
68476;BME280;55464;48.266;14.188;2023-03-25T00:05:07;97159.44;;;11.04;70.72
68476;BME280;55464;48.266;14.188;2023-03-25T00:07:32;97161.84;;;11.06;70.83
68476;BME280;55464;48.266;14.188;2023-03-25T00:09:58;97163.47;;;11.07;70.46
68476;BME280;55464;48.266;14.188;2023-03-25T00:12:23;97159.03;;;11.02;70.70
68476;BME280;55464;48.266;14.188;2023-03-25T00:14:49;97163.53;;;11.10;70.12
68476;BME280;55464;48.266;14.188;2023-03-25T00:17:24;97157.59;;;11.08;70.50
68476;BME280;55464;48.266;14.188;2023-03-25T00:19:57;97148.88;;;11.06;70.22
68476;BME280;55464;48.266;14.188;2023-03-25T00:22:25;97151.09;;;11.01;69.98
68476;BME280;55464;48.266;14.188;2023-03-25T00:24:50;97148.81;;;11.03;69.91
68476;BME280;55464;48.266;14.188;2023-03-25T00:27:16;97157.59;;;11.08;69.53
68476;BME280;55464;48.266;14.188;2023-03-25T00:29:44;97162.22;;;11.04;69.33
68476;BME280;55464;48.266;14.188;2023-03-25T00:32:10;97147.19;;;11.02;68.80
68476;BME280;55464;48.266;14.188;2023-03-25T00:34:36;97165.84;;;11.08;68.66
68476;BME280;55464;48.266;14.188;2023-03-25T00:37:09;97167.88;;;11.11;68.18
68476;BME280;55464;48.266;14.188;2023-03-25T00:39:36;97160.41;;;11.12;68.23
68476;BME280;55464;48.266;14.188;2023-03-25T00:42:02;97158.00;;;11.10;68.15
68476;BME280;55464;48.266;14.188;2023-03-25T00:44:28;97156.13;;;11.14;67.69
68476;BME280;55464;48.266;14.188;2023-03-25T00:46:54;97160.56;;;11.19;67.67
68476;BME280;55464;48.266;14.188;2023-03-25T00:49:20;97156.19;;;11.18;67.71
68476;BME280;55464;48.266;14.188;2023-03-25T00:51:50;97159.31;;;11.16;67.74
68476;BME280;55464;48.266;14.188;2023-03-25T00:54:16;97165.63;;;11.17;67.63
68476;BME280;55464;48.266;14.188;2023-03-25T00:56:42;97168.69;;;11.12;67.96
68476;BME280;55464;48.266;14.188;2023-03-25T00:59:08;97173.84;;;11.13;68.13
68476;BME280;55464;48.266;14.188;2023-03-25T01:01:34;97179.72;;;11.12;68.13
68476;BME280;55464;48.266;14.188;2023-03-25T01:04:04;97170.63;;;11.11;68.25
68476;BME280;55464;48.266;14.188;2023-03-25T01:06:34;97165.84;;;11.08;68.43
68476;BME280;55464;48.266;14.188;2023-03-25T01:09:02;97160.78;;;11.10;68.34
68476;BME280;55464;48.266;14.188;2023-03-25T01:11:31;97162.34;;;11.11;68.45
68476;BME280;55464;48.266;14.188;2023-03-25T01:13:59;97168.31;;;11.13;68.42
68476;BME280;55464;48.266;14.188;2023-03-25T01:16:26;97169.41;;;11.09;68.58
68476;BME280;55464;48.266;14.188;2023-03-25T01:18:53;97163.53;;;11.10;68.43
68476;BME280;55464;48.266;14.188;2023-03-25T01:21:19;97171.44;;;11.12;68.15
68476;BME280;55464;48.266;14.188;2023-03-25T01:23:44;97174.91;;;11.09;68.52
68476;BME280;55464;48.266;14.188;2023-03-25T01:26:10;97180.44;;;11.09;68.66
68476;BME280;55464;48.266;14.188;2023-03-25T01:28:38;97180.44;;;11.09;68.33
68476;BME280;55464;48.266;14.188;2023-03-25T01:31:06;97180.88;;;11.11;68.18
68476;BME280;55464;48.266;14.188;2023-03-25T01:33:32;97175.72;;;11.09;68.50
68476;BME280;55464;48.266;14.188;2023-03-25T01:35:58;97175.72;;;11.09;68.18
68476;BME280;55464;48.266;14.188;2023-03-25T01:38:24;97174.56;;;11.10;68.19
68476;BME280;55464;48.266;14.188;2023-03-25T01:40:51;97172.09;;;11.05;67.98
68476;BME280;55464;48.266;14.188;2023-03-25T01:43:17;97172.09;;;11.05;68.14
68476;BME280;55464;48.266;14.188;2023-03-25T01:45:43;97164.19;;;11.04;68.36
68476;BME280;55464;48.266;14.188;2023-03-25T01:48:16;97167.28;;;11.02;68.36
68476;BME280;55464;48.266;14.188;2023-03-25T01:50:47;97172.81;;;11.02;68.35
68476;BME280;55464;48.266;14.188;2023-03-25T01:53:15;97162.97;;;11.01;68.67
68476;BME280;55464;48.266;14.188;2023-03-25T01:55:42;97158.59;;;11.00;68.64
68476;BME280;55464;48.266;14.188;2023-03-25T01:58:10;97155.84;;;11.00;68.50
68476;BME280;55464;48.266;14.188;2023-03-25T02:00:39;97154.69;;;11.01;68.49
68476;BME280;55464;48.266;14.188;2023-03-25T02:03:05;97155.47;;;11.02;68.66
68476;BME280;55464;48.266;14.188;2023-03-25T02:05:42;97144.44;;;11.02;68.37
68476;BME280;55464;48.266;14.188;2023-03-25T02:08:11;97140.81;;;10.97;68.85
68476;BME280;55464;48.266;14.188;2023-03-25T02:10:41;97159.38;;;11.01;69.01
68476;BME280;55464;48.266;14.188;2023-03-25T02:13:09;97132.09;;;10.95;68.60
68476;BME280;55464;48.266;14.188;2023-03-25T02:15:52;97131.81;;;11.01;68.79
68476;BME280;55464;48.266;14.188;2023-03-25T02:40:39;97143.88;;;10.92;69.23
68476;BME280;55464;48.266;14.188;2023-03-25T02:45:53;97150.59;;;10.95;68.86
68476;BME280;55464;48.266;14.188;2023-03-25T02:48:21;97149.75;;;10.91;69.00
68476;BME280;55464;48.266;14.188;2023-03-25T02:50:52;97143.41;;;10.90;69.08
68476;BME280;55464;48.266;14.188;2023-03-25T02:53:25;97152.50;;;10.91;68.95
68476;BME280;55464;48.266;14.188;2023-03-25T02:55:54;97147.78;;;10.91;69.28
68476;BME280;55464;48.266;14.188;2023-03-25T02:58:23;97149.38;;;10.92;69.03
68476;BME280;55464;48.266;14.188;2023-03-25T03:00:50;97145.81;;;10.92;69.17
68476;BME280;55464;48.266;14.188;2023-03-25T03:03:16;97143.41;;;10.90;68.84
68476;BME280;55464;48.266;14.188;2023-03-25T03:05:44;97141.47;;;10.91;69.00
68476;BME280;55464;48.266;14.188;2023-03-25T03:08:26;97141.41;;;10.87;69.11
68476;BME280;55464;48.266;14.188;2023-03-25T03:11:16;97133.13;;;10.87;69.24
68476;BME280;55464;48.266;14.188;2023-03-25T03:19:51;97134.78;;;10.92;68.84
68476;BME280;55464;48.266;14.188;2023-03-25T03:22:24;97126.50;;;10.92;68.92
68476;BME280;55464;48.266;14.188;2023-03-25T03:25:09;97127.31;;;10.92;68.67
68476;BME280;55464;48.266;14.188;2023-03-25T03:35:21;97142.63;;;10.90;68.50
68476;BME280;55464;48.266;14.188;2023-03-25T03:37:52;97141.03;;;10.89;68.21
68476;BME280;55464;48.266;14.188;2023-03-25T03:40:22;97135.47;;;10.85;68.39
68476;BME280;55464;48.266;14.188;2023-03-25T03:45:44;97141.63;;;10.78;68.32
68476;BME280;55464;48.266;14.188;2023-03-25T03:48:22;97133.97;;;10.72;68.50
68476;BME280;55464;48.266;14.188;2023-03-25T03:50:54;97144.66;;;10.73;68.24
68476;BME280;55464;48.266;14.188;2023-03-25T03:56:25;97135.06;;;10.67;68.23
68476;BME280;55464;48.266;14.188;2023-03-25T03:58:57;97144.22;;;10.71;67.83
68476;BME280;55464;48.266;14.188;2023-03-25T04:01:39;97145.38;;;10.70;67.92
68476;BME280;55464;48.266;14.188;2023-03-25T04:04:13;97145.00;;;10.72;67.80
68476;BME280;55464;48.266;14.188;2023-03-25T04:06:47;97153.28;;;10.72;67.41
68476;BME280;55464;48.266;14.188;2023-03-25T04:12:33;97146.16;;;10.71;67.14
68476;BME280;55464;48.266;14.188;2023-03-25T04:15:01;97152.56;;;10.75;67.11
68476;BME280;55464;48.266;14.188;2023-03-25T04:17:28;97145.44;;;10.74;67.14
68476;BME280;55464;48.266;14.188;2023-03-25T04:19:57;97146.97;;;10.71;66.85
68476;BME280;55464;48.266;14.188;2023-03-25T04:22:23;97153.28;;;10.72;67.14
68476;BME280;55464;48.266;14.188;2023-03-25T04:24:48;97154.78;;;10.69;67.06
68476;BME280;55464;48.266;14.188;2023-03-25T04:27:17;97152.84;;;10.70;67.16
68476;BME280;55464;48.266;14.188;2023-03-25T04:29:44;97146.91;;;10.68;67.35
68476;BME280;55464;48.266;14.188;2023-03-25T04:32:12;97148.03;;;10.67;67.08
68476;BME280;55464;48.266;14.188;2023-03-25T04:34:38;97137.59;;;10.56;67.16
68476;BME280;55464;48.266;14.188;2023-03-25T04:37:04;97153.06;;;10.61;67.26
68476;BME280;55464;48.266;14.188;2023-03-25T04:39:29;97140.78;;;10.58;66.95
68476;BME280;55464;48.266;14.188;2023-03-25T04:41:57;97141.94;;;10.57;67.13
68476;BME280;55464;48.266;14.188;2023-03-25T04:44:26;97151.88;;;10.62;66.62
68476;BME280;55464;48.266;14.188;2023-03-25T04:46:53;97145.56;;;10.62;66.56
68476;BME280;55464;48.266;14.188;2023-03-25T04:49:22;97142.75;;;10.58;66.54
68476;BME280;55464;48.266;14.188;2023-03-25T04:51:50;97159.34;;;10.62;66.66
68476;BME280;55464;48.266;14.188;2023-03-25T04:54:20;97162.09;;;10.62;66.65
68476;BME280;55464;48.266;14.188;2023-03-25T04:56:49;97154.03;;;10.53;65.82
68476;BME280;55464;48.266;14.188;2023-03-25T04:59:16;97155.22;;;10.52;65.65
68476;BME280;55464;48.266;14.188;2023-03-25T05:01:42;97169.88;;;10.56;64.61
68476;BME280;55464;48.266;14.188;2023-03-25T05:04:10;97173.69;;;10.51;64.47
68476;BME280;55464;48.266;14.188;2023-03-25T05:06:41;97169.69;;;10.49;63.80
68476;BME280;55464;48.266;14.188;2023-03-25T05:09:13;97175.22;;;10.49;63.68
68476;BME280;55464;48.266;14.188;2023-03-25T05:11:40;97163.56;;;10.55;63.61
68476;BME280;55464;48.266;14.188;2023-03-25T05:14:07;97170.22;;;10.54;62.99
68476;BME280;55464;48.266;14.188;2023-03-25T05:16:33;97155.09;;;10.48;63.31
68476;BME280;55464;48.266;14.188;2023-03-25T05:18:59;97160.63;;;10.48;63.95
68476;BME280;55464;48.266;14.188;2023-03-25T05:21:24;97149.91;;;10.43;64.17
68476;BME280;55464;48.266;14.188;2023-03-25T05:23:50;97159.31;;;10.42;64.19
68476;BME280;55464;48.266;14.188;2023-03-25T05:26:16;97150.25;;;10.42;64.35
68476;BME280;55464;48.266;14.188;2023-03-25T05:28:42;97160.38;;;10.37;63.90
68476;BME280;55464;48.266;14.188;2023-03-25T05:31:07;97160.09;;;10.43;63.77
68476;BME280;55464;48.266;14.188;2023-03-25T05:33:37;97158.53;;;10.42;63.04
68476;BME280;55464;48.266;14.188;2023-03-25T05:36:10;97162.94;;;10.46;62.52
68476;BME280;55464;48.266;14.188;2023-03-25T05:38:37;97175.41;;;10.40;62.05
68476;BME280;55464;48.266;14.188;2023-03-25T05:41:06;97162.16;;;10.30;62.57
68476;BME280;55464;48.266;14.188;2023-03-25T05:43:35;97149.09;;;10.27;62.82
68476;BME280;55464;48.266;14.188;2023-03-25T05:46:01;97152.38;;;10.32;62.26
68476;BME280;55464;48.266;14.188;2023-03-25T05:48:29;97161.19;;;10.38;62.50
68476;BME280;55464;48.266;14.188;2023-03-25T05:50:57;97174.22;;;10.41;62.46
68476;BME280;55464;48.266;14.188;2023-03-25T05:53:22;97165.25;;;10.44;62.51
68476;BME280;55464;48.266;14.188;2023-03-25T05:55:48;97173.88;;;10.43;62.43
68476;BME280;55464;48.266;14.188;2023-03-25T05:58:16;97173.00;;;10.38;62.22
68476;BME280;55464;48.266;14.188;2023-03-25T06:00:42;97184.38;;;10.37;62.38
68476;BME280;55464;48.266;14.188;2023-03-25T06:03:08;97179.22;;;10.35;62.50
68476;BME280;55464;48.266;14.188;2023-03-25T06:05:38;97202.53;;;10.38;62.52
68476;BME280;55464;48.266;14.188;2023-03-25T06:08:04;97193.97;;;10.43;62.52
68476;BME280;55464;48.266;14.188;2023-03-25T06:10:29;97204.19;;;10.43;62.24
68476;BME280;55464;48.266;14.188;2023-03-25T06:12:54;97199.94;;;10.45;62.33
68476;BME280;55464;48.266;14.188;2023-03-25T06:15:20;97192.81;;;10.44;62.29
68476;BME280;55464;48.266;14.188;2023-03-25T06:17:56;97203.47;;;10.46;62.33
68476;BME280;55464;48.266;14.188;2023-03-25T06:20:21;97202.31;;;10.47;62.03
68476;BME280;55464;48.266;14.188;2023-03-25T06:22:47;97208.91;;;10.42;62.22
68476;BME280;55464;48.266;14.188;2023-03-25T06:25:17;97220.19;;;10.37;62.31
68476;BME280;55464;48.266;14.188;2023-03-25T06:27:44;97211.50;;;10.35;62.44
68476;BME280;55464;48.266;14.188;2023-03-25T06:30:13;97217.00;;;10.35;62.55
68476;BME280;55464;48.266;14.188;2023-03-25T06:32:40;97221.25;;;10.32;62.50
68476;BME280;55464;48.266;14.188;2023-03-25T06:35:07;97221.25;;;10.32;62.69
68476;BME280;55464;48.266;14.188;2023-03-25T06:37:33;97226.28;;;10.30;62.79
68476;BME280;55464;48.266;14.188;2023-03-25T06:39:59;97232.72;;;10.34;62.65
68476;BME280;55464;48.266;14.188;2023-03-25T06:42:26;97221.50;;;10.27;61.99
68476;BME280;55464;48.266;14.188;2023-03-25T06:44:52;97226.75;;;10.32;62.44
68476;BME280;55464;48.266;14.188;2023-03-25T06:47:17;97227.38;;;10.26;62.32
68476;BME280;55464;48.266;14.188;2023-03-25T06:49:43;97213.41;;;10.18;62.35
68476;BME280;55464;48.266;14.188;2023-03-25T06:52:09;97224.72;;;10.29;62.71
68476;BME280;55464;48.266;14.188;2023-03-25T06:54:36;97216.44;;;10.29;62.74
68476;BME280;55464;48.266;14.188;2023-03-25T06:57:01;97220.47;;;10.32;63.18
68476;BME280;55464;48.266;14.188;2023-03-25T06:59:27;97220.78;;;10.30;63.93
68476;BME280;55464;48.266;14.188;2023-03-25T07:01:52;97225.34;;;10.38;63.03
68476;BME280;55464;48.266;14.188;2023-03-25T07:04:18;97231.22;;;10.37;63.24
68476;BME280;55464;48.266;14.188;2023-03-25T07:06:43;97230.41;;;10.36;64.11
68476;BME280;55464;48.266;14.188;2023-03-25T07:09:08;97231.72;;;10.43;63.32
68476;BME280;55464;48.266;14.188;2023-03-25T07:11:34;97228.91;;;10.39;63.51
68476;BME280;55464;48.266;14.188;2023-03-25T07:14:00;97227.47;;;10.45;62.59
68476;BME280;55464;48.266;14.188;2023-03-25T07:16:25;97231.72;;;10.43;62.61
68476;BME280;55464;48.266;14.188;2023-03-25T07:18:51;97222.25;;;10.40;62.63
68476;BME280;55464;48.266;14.188;2023-03-25T07:21:18;97222.50;;;10.35;62.71
68476;BME280;55464;48.266;14.188;2023-03-25T07:23:44;97226.22;;;10.43;62.25
68476;BME280;55464;48.266;14.188;2023-03-25T07:26:10;97220.00;;;10.46;62.06
68476;BME280;55464;48.266;14.188;2023-03-25T07:28:37;97220.34;;;10.44;61.97
68476;BME280;55464;48.266;14.188;2023-03-25T07:31:07;97218.84;;;10.47;60.39
68476;BME280;55464;48.266;14.188;2023-03-25T07:33:33;97224.00;;;10.48;60.46
68476;BME280;55464;48.266;14.188;2023-03-25T07:35:59;97217.34;;;10.49;60.75
68476;BME280;55464;48.266;14.188;2023-03-25T07:38:24;97235.56;;;10.54;61.02
68476;BME280;55464;48.266;14.188;2023-03-25T07:40:50;97232.53;;;10.59;59.95
68476;BME280;55464;48.266;14.188;2023-03-25T07:43:15;97230.56;;;10.59;60.37
68476;BME280;55464;48.266;14.188;2023-03-25T07:45:40;97226.34;;;10.66;59.13
68476;BME280;55464;48.266;14.188;2023-03-25T07:48:06;97248.69;;;10.60;59.00
68476;BME280;55464;48.266;14.188;2023-03-25T07:50:37;97239.69;;;10.64;58.66
68476;BME280;55464;48.266;14.188;2023-03-25T07:53:03;97239.69;;;10.64;57.91
68476;BME280;55464;48.266;14.188;2023-03-25T07:55:28;97232.88;;;10.57;58.60
68476;BME280;55464;48.266;14.188;2023-03-25T07:57:53;97220.31;;;10.60;59.02
68476;BME280;55464;48.266;14.188;2023-03-25T08:00:19;97225.56;;;10.65;59.17
68476;BME280;55464;48.266;14.188;2023-03-25T08:02:45;97243.16;;;10.60;58.93
68476;BME280;55464;48.266;14.188;2023-03-25T08:05:10;97255.72;;;10.58;59.77
68476;BME280;55464;48.266;14.188;2023-03-25T08:07:36;97259.19;;;10.55;59.87
68476;BME280;55464;48.266;14.188;2023-03-25T08:10:02;97268.19;;;10.52;60.45
68476;BME280;55464;48.266;14.188;2023-03-25T08:12:27;97268.53;;;10.50;61.09
68476;BME280;55464;48.266;14.188;2023-03-25T08:14:53;97270.47;;;10.50;61.69
68476;BME280;55464;48.266;14.188;2023-03-25T08:17:18;97261.41;;;10.49;62.25
68476;BME280;55464;48.266;14.188;2023-03-25T08:19:44;97259.44;;;10.50;62.47
68476;BME280;55464;48.266;14.188;2023-03-25T08:22:09;97263.72;;;10.47;62.70
68476;BME280;55464;48.266;14.188;2023-03-25T08:24:35;97262.56;;;10.48;62.38
68476;BME280;55464;48.266;14.188;2023-03-25T08:27:00;97264.25;;;10.53;62.53
68476;BME280;55464;48.266;14.188;2023-03-25T08:29:26;97270.63;;;10.57;62.46
68476;BME280;55464;48.266;14.188;2023-03-25T08:31:52;97259.91;;;10.52;62.22
68476;BME280;55464;48.266;14.188;2023-03-25T08:34:20;97264.84;;;10.62;62.50
68476;BME280;55464;48.266;14.188;2023-03-25T08:36:46;97261.03;;;10.67;62.59
68476;BME280;55464;48.266;14.188;2023-03-25T08:39:13;97265.94;;;10.73;62.00
68476;BME280;55464;48.266;14.188;2023-03-25T08:41:42;97274.72;;;10.79;61.30
68476;BME280;55464;48.266;14.188;2023-03-25T08:44:07;97270.44;;;10.82;61.72
68476;BME280;55464;48.266;14.188;2023-03-25T08:46:33;97269.44;;;10.90;59.84
68476;BME280;55464;48.266;14.188;2023-03-25T08:48:58;97265.72;;;10.82;59.11
68476;BME280;55464;48.266;14.188;2023-03-25T08:51:25;97273.00;;;10.90;58.31
68476;BME280;55464;48.266;14.188;2023-03-25T08:53:50;97257.28;;;10.91;57.74
68476;BME280;55464;48.266;14.188;2023-03-25T08:56:16;97272.13;;;10.86;57.94
68476;BME280;55464;48.266;14.188;2023-03-25T08:58:41;97263.28;;;10.96;57.92
68476;BME280;55464;48.266;14.188;2023-03-25T09:01:07;97265.84;;;11.05;57.54
68476;BME280;55464;48.266;14.188;2023-03-25T09:03:32;97258.66;;;11.01;57.50
68476;BME280;55464;48.266;14.188;2023-03-25T09:06:03;97279.28;;;11.07;57.77
68476;BME280;55464;48.266;14.188;2023-03-25T09:08:28;97267.91;;;11.08;56.96
68476;BME280;55464;48.266;14.188;2023-03-25T09:10:54;97267.53;;;11.10;57.44
68476;BME280;55464;48.266;14.188;2023-03-25T09:13:20;97265.56;;;11.10;58.08
68476;BME280;55464;48.266;14.188;2023-03-25T09:15:45;97280.22;;;11.14;56.43
68476;BME280;55464;48.266;14.188;2023-03-25T09:18:11;97274.00;;;11.18;54.55
68476;BME280;55464;48.266;14.188;2023-03-25T09:20:36;97268.19;;;11.23;55.10
68476;BME280;55464;48.266;14.188;2023-03-25T09:23:02;97259.22;;;11.26;54.82
68476;BME280;55464;48.266;14.188;2023-03-25T09:25:27;97261.28;;;11.32;55.74
68476;BME280;55464;48.266;14.188;2023-03-25T09:27:52;97271.31;;;11.41;53.37
68476;BME280;55464;48.266;14.188;2023-03-25T09:30:18;97274.44;;;11.39;53.52
68476;BME280;55464;48.266;14.188;2023-03-25T09:32:43;97265.31;;;11.35;54.44
68476;BME280;55464;48.266;14.188;2023-03-25T09:35:09;97260.50;;;11.32;55.38
68476;BME280;55464;48.266;14.188;2023-03-25T09:37:35;97259.78;;;11.35;56.16
68476;BME280;55464;48.266;14.188;2023-03-25T09:40:00;97251.56;;;11.39;55.51
68476;BME280;55464;48.266;14.188;2023-03-25T09:50:30;97241.88;;;11.45;56.76
68476;BME280;55464;48.266;14.188;2023-03-25T09:53:06;97235.09;;;11.42;56.29
68476;BME280;55464;48.266;14.188;2023-03-25T09:55:39;97233.47;;;11.41;56.86
68476;BME280;55464;48.266;14.188;2023-03-25T09:58:27;97239.09;;;11.45;56.87
68476;BME280;55464;48.266;14.188;2023-03-25T10:12:46;97217.53;;;11.50;54.26
68476;BME280;55464;48.266;14.188;2023-03-25T10:18:24;97206.47;;;11.70;51.09
68476;BME280;55464;48.266;14.188;2023-03-25T10:23:33;97207.56;;;11.88;50.24
68476;BME280;55464;48.266;14.188;2023-03-25T10:26:07;97207.34;;;11.97;50.72
68476;BME280;55464;48.266;14.188;2023-03-25T10:28:38;97187.44;;;11.88;50.30
68476;BME280;55464;48.266;14.188;2023-03-25T10:31:12;97185.19;;;11.94;51.32
68476;BME280;55464;48.266;14.188;2023-03-25T10:33:44;97178.09;;;11.93;51.42
68476;BME280;55464;48.266;14.188;2023-03-25T10:36:16;97184.41;;;11.93;53.22
68476;BME280;55464;48.266;14.188;2023-03-25T10:38:45;97169.56;;;12.01;51.25
68476;BME280;55464;48.266;14.188;2023-03-25T10:41:26;97181.16;;;12.10;51.62
68476;BME280;55464;48.266;14.188;2023-03-25T10:43:55;97182.81;;;12.15;51.04
68476;BME280;55464;48.266;14.188;2023-03-25T10:48:52;97160.47;;;12.24;50.13
68476;BME280;55464;48.266;14.188;2023-03-25T10:51:26;97175.84;;;12.25;49.79
68476;BME280;55464;48.266;14.188;2023-03-25T10:53:53;97178.25;;;12.26;50.51
68476;BME280;55464;48.266;14.188;2023-03-25T10:56:24;97186.66;;;12.34;50.37
68476;BME280;55464;48.266;14.188;2023-03-25T10:58:56;97182.78;;;12.38;49.61
68476;BME280;55464;48.266;14.188;2023-03-25T11:01:41;97184.34;;;12.39;49.65
68476;BME280;55464;48.266;14.188;2023-03-25T11:04:10;97199.38;;;12.38;49.10
68476;BME280;55464;48.266;14.188;2023-03-25T11:06:39;97172.78;;;12.30;49.33
68476;BME280;55464;48.266;14.188;2023-03-25T11:09:24;97168.53;;;12.36;50.39
68476;BME280;55464;48.266;14.188;2023-03-25T11:11:52;97168.97;;;12.38;51.35
68476;BME280;55464;48.266;14.188;2023-03-25T11:14:26;97190.75;;;12.43;50.15
68476;BME280;55464;48.266;14.188;2023-03-25T11:16:58;97164.66;;;12.41;48.93
68476;BME280;55464;48.266;14.188;2023-03-25T11:21:56;97167.91;;;12.46;49.65
68476;BME280;55464;48.266;14.188;2023-03-25T11:24:30;97168.19;;;12.38;50.22
68476;BME280;55464;48.266;14.188;2023-03-25T11:26:56;97166.47;;;12.29;49.90
68476;BME280;55464;48.266;14.188;2023-03-25T11:29:24;97161.34;;;12.32;50.29
68476;BME280;55464;48.266;14.188;2023-03-25T11:32:10;97168.66;;;12.43;49.88
68476;BME280;55464;48.266;14.188;2023-03-25T11:34:37;97161.09;;;12.40;49.66
68476;BME280;55464;48.266;14.188;2023-03-25T11:37:18;97152.50;;;12.45;50.42
68476;BME280;55464;48.266;14.188;2023-03-25T11:39:48;97142.63;;;12.48;50.50
68476;BME280;55464;48.266;14.188;2023-03-25T11:42:31;97154.97;;;12.54;49.02
68476;BME280;55464;48.266;14.188;2023-03-25T11:44:59;97145.78;;;12.73;49.79
68476;BME280;55464;48.266;14.188;2023-03-25T11:47:28;97160.09;;;12.82;48.87
68476;BME280;55464;48.266;14.188;2023-03-25T11:49:55;97137.56;;;12.80;48.04
68476;BME280;55464;48.266;14.188;2023-03-25T11:52:24;97134.06;;;12.83;48.55
68476;BME280;55464;48.266;14.188;2023-03-25T11:54:54;97115.16;;;12.89;49.63
68476;BME280;55464;48.266;14.188;2023-03-25T11:57:23;97124.25;;;12.90;49.95
68476;BME280;55464;48.266;14.188;2023-03-25T11:59:59;97111.16;;;12.86;49.76
68476;BME280;55464;48.266;14.188;2023-03-25T12:02:35;97124.19;;;12.86;49.41
68476;BME280;55464;48.266;14.188;2023-03-25T12:08:17;97117.28;;;12.99;49.82
68476;BME280;55464;48.266;14.188;2023-03-25T12:11:10;97108.75;;;13.15;50.42
68476;BME280;55464;48.266;14.188;2023-03-25T12:33:32;97094.19;;;12.88;47.59
68476;BME280;55464;48.266;14.188;2023-03-25T12:36:18;97096.97;;;12.88;48.66
68476;BME280;55464;48.266;14.188;2023-03-25T12:41:29;97089.22;;;13.01;49.41
68476;BME280;55464;48.266;14.188;2023-03-25T12:44:03;97087.66;;;13.03;49.17
68476;BME280;55464;48.266;14.188;2023-03-25T12:52:29;97092.28;;;12.92;49.67
68476;BME280;55464;48.266;14.188;2023-03-25T13:08:41;97066.38;;;12.74;50.26
68476;BME280;55464;48.266;14.188;2023-03-25T13:11:16;97074.31;;;12.75;50.74
68476;BME280;55464;48.266;14.188;2023-03-25T13:13:47;97065.63;;;12.77;50.63
68476;BME280;55464;48.266;14.188;2023-03-25T13:16:17;97064.06;;;12.79;50.01
68476;BME280;55464;48.266;14.188;2023-03-25T13:19:00;97070.84;;;12.82;50.03
68476;BME280;55464;48.266;14.188;2023-03-25T13:21:29;97064.09;;;12.83;50.59
68476;BME280;55464;48.266;14.188;2023-03-25T13:24:13;97058.47;;;13.06;50.00
68476;BME280;55464;48.266;14.188;2023-03-25T13:26:43;97060.53;;;13.16;49.37
68476;BME280;55464;48.266;14.188;2023-03-25T13:29:36;97049.06;;;13.14;50.02
68476;BME280;55464;48.266;14.188;2023-03-25T13:32:42;97031.22;;;13.08;50.38
68476;BME280;55464;48.266;14.188;2023-03-25T13:35:17;97030.75;;;13.02;49.55
68476;BME280;55464;48.266;14.188;2023-03-25T13:37:47;97035.41;;;12.95;48.67
68476;BME280;55464;48.266;14.188;2023-03-25T13:40:32;97031.81;;;12.91;48.91
68476;BME280;55464;48.266;14.188;2023-03-25T13:46:11;97053.88;;;12.83;50.04
68476;BME280;55464;48.266;14.188;2023-03-25T13:48:51;97052.13;;;12.72;55.42
68476;BME280;55464;48.266;14.188;2023-03-25T13:51:19;97028.47;;;12.74;59.20
68476;BME280;55464;48.266;14.188;2023-03-25T13:54:21;97032.41;;;12.73;59.01
68476;BME280;55464;48.266;14.188;2023-03-25T14:13:12;97029.97;;;13.39;53.32
68476;BME280;55464;48.266;14.188;2023-03-25T14:15:43;97030.94;;;13.61;52.80
68476;BME280;55464;48.266;14.188;2023-03-25T14:18:18;97024.69;;;13.72;52.28
68476;BME280;55464;48.266;14.188;2023-03-25T14:20:44;97024.00;;;13.86;52.59
68476;BME280;55464;48.266;14.188;2023-03-25T14:23:16;97041.59;;;14.11;51.25
68476;BME280;55464;48.266;14.188;2023-03-25T14:25:51;97011.19;;;14.22;51.30
68476;BME280;55464;48.266;14.188;2023-03-25T14:28:30;97012.03;;;14.37;49.73
68476;BME280;55464;48.266;14.188;2023-03-25T14:38:56;97016.56;;;14.70;48.40
68476;BME280;55464;48.266;14.188;2023-03-25T14:44:27;97012.25;;;14.77;47.19
68476;BME280;55464;48.266;14.188;2023-03-25T14:49:54;97023.19;;;14.55;47.38
68476;BME280;55464;48.266;14.188;2023-03-25T14:52:31;97022.75;;;14.46;46.00
68476;BME280;55464;48.266;14.188;2023-03-25T14:55:01;97013.63;;;14.34;45.34
68476;BME280;55464;48.266;14.188;2023-03-25T14:57:37;97037.38;;;14.39;45.41
68476;BME280;55464;48.266;14.188;2023-03-25T15:00:05;97028.81;;;14.59;45.43
68476;BME280;55464;48.266;14.188;2023-03-25T15:02:40;97017.75;;;14.69;45.51
68476;BME280;55464;48.266;14.188;2023-03-25T15:05:26;97015.78;;;14.73;44.73
68476;BME280;55464;48.266;14.188;2023-03-25T15:08:10;97045.38;;;14.55;44.21
68476;BME280;55464;48.266;14.188;2023-03-25T15:10:40;97026.22;;;14.25;44.92
68476;BME280;55464;48.266;14.188;2023-03-25T15:18:12;97046.41;;;14.25;49.70
68476;BME280;55464;48.266;14.188;2023-03-25T15:26:12;97040.63;;;13.86;52.87
68476;BME280;55464;48.266;14.188;2023-03-25T15:34:06;97085.69;;;13.38;53.72
68476;BME280;55464;48.266;14.188;2023-03-25T15:42:01;97088.25;;;12.86;55.38
68476;BME280;55464;48.266;14.188;2023-03-25T15:44:40;97103.44;;;12.69;56.08
68476;BME280;55464;48.266;14.188;2023-03-25T15:56:15;97188.16;;;12.04;58.88
68476;BME280;55464;48.266;14.188;2023-03-25T15:58:55;97194.66;;;11.93;58.99
68476;BME280;55464;48.266;14.188;2023-03-25T16:01:29;97206.28;;;11.82;59.91
68476;BME280;55464;48.266;14.188;2023-03-25T16:04:02;97185.66;;;11.76;60.76
68476;BME280;55464;48.266;14.188;2023-03-25T16:06:32;97175.78;;;11.52;61.41
68476;BME280;55464;48.266;14.188;2023-03-25T16:09:00;97160.16;;;11.40;61.94